sensor_id;sensor_type;location;lat;lon;timestamp;P1;durP1;ratioP1;P2;durP2;ratioP2
67816;SDS011;54614;47.576;7.524;2022-08-04T00:00:04;13.88;;;10.25;;
67816;SDS011;54614;47.576;7.524;2022-08-04T00:02:41;12.00;;;9.30;;
67816;SDS011;54614;47.576;7.524;2022-08-04T00:05:32;13.15;;;9.43;;
67816;SDS011;54614;47.576;7.524;2022-08-04T00:11:06;13.52;;;9.15;;
67816;SDS011;54614;47.576;7.524;2022-08-04T00:13:36;10.77;;;8.35;;
67816;SDS011;54614;47.576;7.524;2022-08-04T00:16:08;10.82;;;8.40;;
67816;SDS011;54614;47.576;7.524;2022-08-04T00:18:43;9.23;;;7.70;;
67816;SDS011;54614;47.576;7.524;2022-08-04T00:21:16;10.05;;;7.93;;
67816;SDS011;54614;47.576;7.524;2022-08-04T00:23:48;10.55;;;8.10;;
67816;SDS011;54614;47.576;7.524;2022-08-04T00:26:18;8.73;;;7.05;;
67816;SDS011;54614;47.576;7.524;2022-08-04T00:28:46;9.70;;;7.18;;
67816;SDS011;54614;47.576;7.524;2022-08-04T00:31:13;10.25;;;7.53;;
67816;SDS011;54614;47.576;7.524;2022-08-04T00:33:44;9.30;;;7.03;;
67816;SDS011;54614;47.576;7.524;2022-08-04T00:36:10;8.23;;;6.60;;
67816;SDS011;54614;47.576;7.524;2022-08-04T00:38:41;7.68;;;6.07;;
67816;SDS011;54614;47.576;7.524;2022-08-04T00:41:18;8.48;;;6.78;;
67816;SDS011;54614;47.576;7.524;2022-08-04T00:46:48;7.47;;;6.28;;
67816;SDS011;54614;47.576;7.524;2022-08-04T00:55:58;7.07;;;5.85;;
67816;SDS011;54614;47.576;7.524;2022-08-04T00:59:09;6.47;;;5.47;;
67816;SDS011;54614;47.576;7.524;2022-08-04T01:05:01;6.22;;;5.43;;
67816;SDS011;54614;47.576;7.524;2022-08-04T01:10:58;5.88;;;5.15;;
67816;SDS011;54614;47.576;7.524;2022-08-04T01:16:31;6.55;;;4.88;;
67816;SDS011;54614;47.576;7.524;2022-08-04T01:20:03;5.75;;;4.65;;
67816;SDS011;54614;47.576;7.524;2022-08-04T01:28:33;5.95;;;4.65;;
67816;SDS011;54614;47.576;7.524;2022-08-04T01:34:36;5.03;;;4.43;;
67816;SDS011;54614;47.576;7.524;2022-08-04T01:40:31;4.60;;;3.97;;
67816;SDS011;54614;47.576;7.524;2022-08-04T01:43:01;4.53;;;4.13;;
67816;SDS011;54614;47.576;7.524;2022-08-04T01:45:29;4.38;;;3.83;;
67816;SDS011;54614;47.576;7.524;2022-08-04T01:47:55;4.35;;;3.95;;
67816;SDS011;54614;47.576;7.524;2022-08-04T01:50:23;4.10;;;3.70;;
67816;SDS011;54614;47.576;7.524;2022-08-04T01:52:52;4.20;;;3.80;;
67816;SDS011;54614;47.576;7.524;2022-08-04T01:55:20;4.25;;;3.78;;
67816;SDS011;54614;47.576;7.524;2022-08-04T01:57:48;4.03;;;3.63;;
67816;SDS011;54614;47.576;7.524;2022-08-04T02:00:23;4.22;;;3.83;;
67816;SDS011;54614;47.576;7.524;2022-08-04T02:02:52;3.95;;;3.55;;
67816;SDS011;54614;47.576;7.524;2022-08-04T02:05:21;3.90;;;3.50;;
67816;SDS011;54614;47.576;7.524;2022-08-04T02:13:52;3.90;;;3.40;;
67816;SDS011;54614;47.576;7.524;2022-08-04T02:22:14;3.38;;;3.08;;
67816;SDS011;54614;47.576;7.524;2022-08-04T02:24:45;3.67;;;3.33;;
67816;SDS011;54614;47.576;7.524;2022-08-04T02:27:19;3.60;;;3.30;;
67816;SDS011;54614;47.576;7.524;2022-08-04T02:30:02;3.33;;;3.03;;
67816;SDS011;54614;47.576;7.524;2022-08-04T02:32:31;3.30;;;3.00;;
67816;SDS011;54614;47.576;7.524;2022-08-04T02:37:38;3.63;;;3.33;;
67816;SDS011;54614;47.576;7.524;2022-08-04T02:40:11;3.42;;;3.13;;
67816;SDS011;54614;47.576;7.524;2022-08-04T02:42:44;2.97;;;2.70;;
67816;SDS011;54614;47.576;7.524;2022-08-04T02:45:11;3.25;;;3.00;;
67816;SDS011;54614;47.576;7.524;2022-08-04T02:47:41;3.40;;;3.10;;
67816;SDS011;54614;47.576;7.524;2022-08-04T02:50:10;3.42;;;3.13;;
67816;SDS011;54614;47.576;7.524;2022-08-04T02:52:38;3.20;;;2.90;;
67816;SDS011;54614;47.576;7.524;2022-08-04T02:55:07;3.00;;;2.72;;
67816;SDS011;54614;47.576;7.524;2022-08-04T02:57:38;2.80;;;2.60;;
67816;SDS011;54614;47.576;7.524;2022-08-04T03:00:11;3.00;;;2.80;;
67816;SDS011;54614;47.576;7.524;2022-08-04T03:02:56;3.00;;;2.80;;
67816;SDS011;54614;47.576;7.524;2022-08-04T03:17:54;3.50;;;3.20;;
67816;SDS011;54614;47.576;7.524;2022-08-04T03:20:47;3.75;;;3.38;;
67816;SDS011;54614;47.576;7.524;2022-08-04T03:46:11;3.78;;;3.40;;
67816;SDS011;54614;47.576;7.524;2022-08-04T03:52:38;4.22;;;3.20;;
67816;SDS011;54614;47.576;7.524;2022-08-04T04:10:11;4.18;;;3.63;;
67816;SDS011;54614;47.576;7.524;2022-08-04T19:32:07;1.70;;;1.60;;
67816;SDS011;54614;47.576;7.524;2022-08-04T19:34:35;2.83;;;1.85;;
67816;SDS011;54614;47.576;7.524;2022-08-04T19:37:01;3.00;;;2.03;;
67816;SDS011;54614;47.576;7.524;2022-08-04T19:39:27;3.53;;;2.10;;
67816;SDS011;54614;47.576;7.524;2022-08-04T19:41:56;3.10;;;2.10;;
67816;SDS011;54614;47.576;7.524;2022-08-04T19:44:22;2.65;;;1.95;;
67816;SDS011;54614;47.576;7.524;2022-08-04T19:46:48;2.90;;;2.15;;
67816;SDS011;54614;47.576;7.524;2022-08-04T19:49:13;2.35;;;1.90;;
67816;SDS011;54614;47.576;7.524;2022-08-04T19:51:41;2.47;;;1.85;;
67816;SDS011;54614;47.576;7.524;2022-08-04T19:54:07;1.90;;;1.80;;
67816;SDS011;54614;47.576;7.524;2022-08-04T19:56:33;2.40;;;2.10;;
67816;SDS011;54614;47.576;7.524;2022-08-04T19:58:59;2.10;;;2.00;;
67816;SDS011;54614;47.576;7.524;2022-08-04T20:01:25;3.38;;;1.90;;
67816;SDS011;54614;47.576;7.524;2022-08-04T20:03:51;2.10;;;1.88;;
67816;SDS011;54614;47.576;7.524;2022-08-04T20:06:17;1.83;;;1.73;;
67816;SDS011;54614;47.576;7.524;2022-08-04T20:08:43;1.80;;;1.70;;
67816;SDS011;54614;47.576;7.524;2022-08-04T20:11:09;2.30;;;1.90;;
67816;SDS011;54614;47.576;7.524;2022-08-04T20:13:35;1.80;;;1.70;;
67816;SDS011;54614;47.576;7.524;2022-08-04T20:16:01;1.80;;;1.70;;
67816;SDS011;54614;47.576;7.524;2022-08-04T20:18:28;1.90;;;1.80;;
67816;SDS011;54614;47.576;7.524;2022-08-04T20:20:54;2.80;;;1.77;;
67816;SDS011;54614;47.576;7.524;2022-08-04T20:23:20;2.28;;;1.70;;
67816;SDS011;54614;47.576;7.524;2022-08-04T20:25:46;2.03;;;1.80;;
67816;SDS011;54614;47.576;7.524;2022-08-04T20:28:12;2.00;;;1.90;;
67816;SDS011;54614;47.576;7.524;2022-08-04T20:30:37;2.35;;;2.00;;
67816;SDS011;54614;47.576;7.524;2022-08-04T20:33:03;2.70;;;1.92;;
67816;SDS011;54614;47.576;7.524;2022-08-04T20:35:29;3.30;;;1.90;;
67816;SDS011;54614;47.576;7.524;2022-08-04T20:37:57;2.13;;;2.03;;
67816;SDS011;54614;47.576;7.524;2022-08-04T20:40:24;2.45;;;1.98;;
67816;SDS011;54614;47.576;7.524;2022-08-04T20:42:50;2.10;;;1.88;;
67816;SDS011;54614;47.576;7.524;2022-08-04T20:45:16;2.30;;;2.00;;
67816;SDS011;54614;47.576;7.524;2022-08-04T20:47:42;2.33;;;2.00;;
67816;SDS011;54614;47.576;7.524;2022-08-04T20:50:12;2.72;;;2.10;;
67816;SDS011;54614;47.576;7.524;2022-08-04T20:52:38;2.00;;;1.83;;
67816;SDS011;54614;47.576;7.524;2022-08-04T20:55:07;2.15;;;2.00;;
67816;SDS011;54614;47.576;7.524;2022-08-04T20:57:34;1.90;;;1.80;;
67816;SDS011;54614;47.576;7.524;2022-08-04T21:00:00;1.90;;;1.80;;
67816;SDS011;54614;47.576;7.524;2022-08-04T21:02:28;2.20;;;2.00;;
67816;SDS011;54614;47.576;7.524;2022-08-04T21:04:53;2.22;;;2.03;;
67816;SDS011;54614;47.576;7.524;2022-08-04T21:07:19;2.50;;;1.92;;
67816;SDS011;54614;47.576;7.524;2022-08-04T21:09:48;2.15;;;1.98;;
67816;SDS011;54614;47.576;7.524;2022-08-04T21:12:15;1.90;;;1.80;;
67816;SDS011;54614;47.576;7.524;2022-08-04T21:14:42;2.17;;;1.80;;
67816;SDS011;54614;47.576;7.524;2022-08-04T21:17:09;2.30;;;1.90;;
67816;SDS011;54614;47.576;7.524;2022-08-04T21:19:36;2.85;;;1.80;;
67816;SDS011;54614;47.576;7.524;2022-08-04T21:22:03;2.10;;;2.00;;
67816;SDS011;54614;47.576;7.524;2022-08-04T21:24:32;2.63;;;1.90;;
67816;SDS011;54614;47.576;7.524;2022-08-04T21:27:00;3.33;;;2.10;;
67816;SDS011;54614;47.576;7.524;2022-08-04T21:29:30;2.00;;;1.90;;
67816;SDS011;54614;47.576;7.524;2022-08-04T21:31:57;1.95;;;1.85;;
67816;SDS011;54614;47.576;7.524;2022-08-04T21:34:24;2.88;;;1.90;;
67816;SDS011;54614;47.576;7.524;2022-08-04T21:36:50;1.80;;;1.70;;
67816;SDS011;54614;47.576;7.524;2022-08-04T21:39:16;2.00;;;1.90;;
67816;SDS011;54614;47.576;7.524;2022-08-04T21:41:42;2.05;;;1.90;;
67816;SDS011;54614;47.576;7.524;2022-08-04T21:44:08;1.83;;;1.73;;
67816;SDS011;54614;47.576;7.524;2022-08-04T21:46:34;1.73;;;1.63;;
67816;SDS011;54614;47.576;7.524;2022-08-04T21:49:00;1.90;;;1.80;;
67816;SDS011;54614;47.576;7.524;2022-08-04T21:51:30;1.83;;;1.73;;
67816;SDS011;54614;47.576;7.524;2022-08-04T21:53:59;1.80;;;1.70;;
67816;SDS011;54614;47.576;7.524;2022-08-04T21:56:28;2.17;;;1.90;;
67816;SDS011;54614;47.576;7.524;2022-08-04T21:58:54;2.00;;;1.90;;
67816;SDS011;54614;47.576;7.524;2022-08-04T22:01:22;1.90;;;1.80;;
67816;SDS011;54614;47.576;7.524;2022-08-04T22:03:49;2.13;;;1.80;;
67816;SDS011;54614;47.576;7.524;2022-08-04T22:06:15;2.15;;;1.95;;
67816;SDS011;54614;47.576;7.524;2022-08-04T22:08:43;2.20;;;2.00;;
67816;SDS011;54614;47.576;7.524;2022-08-04T22:13:49;1.70;;;1.60;;
67816;SDS011;54614;47.576;7.524;2022-08-04T22:16:15;1.75;;;1.60;;
67816;SDS011;54614;47.576;7.524;2022-08-04T22:18:42;2.00;;;1.90;;
67816;SDS011;54614;47.576;7.524;2022-08-04T22:21:08;2.05;;;1.90;;
67816;SDS011;54614;47.576;7.524;2022-08-04T22:23:34;1.70;;;1.60;;
67816;SDS011;54614;47.576;7.524;2022-08-04T22:26:00;2.08;;;1.88;;
67816;SDS011;54614;47.576;7.524;2022-08-04T22:28:27;2.15;;;2.00;;
67816;SDS011;54614;47.576;7.524;2022-08-04T22:30:53;2.10;;;1.90;;
67816;SDS011;54614;47.576;7.524;2022-08-04T22:33:19;1.83;;;1.73;;
67816;SDS011;54614;47.576;7.524;2022-08-04T22:35:45;1.77;;;1.67;;
67816;SDS011;54614;47.576;7.524;2022-08-04T22:38:11;1.60;;;1.50;;
67816;SDS011;54614;47.576;7.524;2022-08-04T22:40:38;1.88;;;1.77;;
67816;SDS011;54614;47.576;7.524;2022-08-04T22:43:04;2.08;;;1.88;;
67816;SDS011;54614;47.576;7.524;2022-08-04T22:45:30;1.80;;;1.70;;
67816;SDS011;54614;47.576;7.524;2022-08-04T22:47:56;1.95;;;1.77;;
67816;SDS011;54614;47.576;7.524;2022-08-04T22:50:22;2.03;;;1.40;;
67816;SDS011;54614;47.576;7.524;2022-08-04T22:52:48;1.95;;;1.83;;
67816;SDS011;54614;47.576;7.524;2022-08-04T22:55:14;1.80;;;1.70;;
67816;SDS011;54614;47.576;7.524;2022-08-04T22:57:40;1.77;;;1.67;;
67816;SDS011;54614;47.576;7.524;2022-08-04T23:00:06;1.80;;;1.70;;
67816;SDS011;54614;47.576;7.524;2022-08-04T23:02:33;1.88;;;1.77;;
67816;SDS011;54614;47.576;7.524;2022-08-04T23:04:59;1.80;;;1.70;;
67816;SDS011;54614;47.576;7.524;2022-08-04T23:07:24;1.90;;;1.80;;
67816;SDS011;54614;47.576;7.524;2022-08-04T23:09:50;1.80;;;1.70;;
67816;SDS011;54614;47.576;7.524;2022-08-04T23:12:17;1.92;;;1.75;;
67816;SDS011;54614;47.576;7.524;2022-08-04T23:14:44;1.80;;;1.70;;
67816;SDS011;54614;47.576;7.524;2022-08-04T23:17:11;1.90;;;1.80;;
67816;SDS011;54614;47.576;7.524;2022-08-04T23:19:38;1.80;;;1.70;;
67816;SDS011;54614;47.576;7.524;2022-08-04T23:22:04;1.80;;;1.70;;
67816;SDS011;54614;47.576;7.524;2022-08-04T23:24:30;1.80;;;1.70;;
67816;SDS011;54614;47.576;7.524;2022-08-04T23:26:56;1.75;;;1.65;;
67816;SDS011;54614;47.576;7.524;2022-08-04T23:29:23;2.13;;;2.03;;
67816;SDS011;54614;47.576;7.524;2022-08-04T23:31:49;1.90;;;1.80;;
67816;SDS011;54614;47.576;7.524;2022-08-04T23:34:15;2.10;;;2.00;;
67816;SDS011;54614;47.576;7.524;2022-08-04T23:36:41;1.90;;;1.80;;
67816;SDS011;54614;47.576;7.524;2022-08-04T23:39:07;2.08;;;1.98;;
67816;SDS011;54614;47.576;7.524;2022-08-04T23:41:34;1.88;;;1.77;;
67816;SDS011;54614;47.576;7.524;2022-08-04T23:44:00;1.83;;;1.73;;
67816;SDS011;54614;47.576;7.524;2022-08-04T23:46:26;1.90;;;1.80;;
67816;SDS011;54614;47.576;7.524;2022-08-04T23:48:52;1.83;;;1.73;;
67816;SDS011;54614;47.576;7.524;2022-08-04T23:51:18;1.83;;;1.73;;
67816;SDS011;54614;47.576;7.524;2022-08-04T23:53:44;2.65;;;1.92;;
67816;SDS011;54614;47.576;7.524;2022-08-04T23:56:12;1.83;;;1.73;;
67816;SDS011;54614;47.576;7.524;2022-08-04T23:58:40;2.00;;;1.90;;
